createdAt,value
2022-08-25T00:02:56.768Z,21.30
2022-08-25T00:08:00.381Z,21.30
2022-08-25T00:13:02.713Z,21.20
2022-08-25T00:18:05.606Z,21.20
2022-08-25T00:23:19.092Z,21.20
2022-08-25T00:28:21.150Z,21.20
2022-08-25T00:33:23.003Z,21.20
2022-08-25T00:38:24.873Z,21.20
2022-08-25T00:43:27.717Z,21.20
2022-08-25T00:48:29.540Z,21.20
2022-08-25T00:53:32.094Z,21.10
2022-08-25T00:58:35.006Z,21.10
2022-08-25T01:03:37.204Z,21.10
2022-08-25T01:08:39.109Z,21.10
2022-08-25T01:13:47.532Z,21.10
2022-08-25T01:19:00.576Z,21.10
2022-08-25T01:24:02.629Z,21.10
2022-08-25T01:29:22.301Z,21.10
2022-08-25T01:34:30.274Z,21.10
2022-08-25T01:39:36.853Z,21.10
2022-08-25T01:44:41.870Z,21.10
2022-08-25T01:49:43.801Z,21.10
2022-08-25T01:54:45.826Z,21.10
2022-08-25T01:59:48.035Z,21.10
2022-08-25T02:04:50.727Z,21.10
2022-08-25T02:09:52.651Z,21.00
2022-08-25T02:14:54.497Z,21.10
2022-08-25T02:19:57.153Z,21.10
2022-08-25T02:24:59.870Z,21.10
2022-08-25T02:30:02.336Z,21.10
2022-08-25T02:35:04.967Z,21.00
2022-08-25T02:40:07.774Z,21.00
2022-08-25T02:45:09.789Z,21.10
2022-08-25T02:50:12.074Z,21.10
2022-08-25T02:55:14.291Z,21.00
2022-08-25T03:00:16.739Z,21.00
2022-08-25T03:05:19.675Z,21.00
2022-08-25T03:10:21.715Z,21.00
2022-08-25T03:15:25.617Z,21.00
2022-08-25T03:20:28.424Z,21.00
2022-08-25T03:25:48.719Z,21.00
2022-08-25T03:30:53.369Z,20.90
2022-08-25T03:35:58.359Z,20.90
2022-08-25T03:41:00.323Z,20.80
2022-08-25T03:46:02.253Z,20.80
2022-08-25T03:51:04.545Z,20.70
2022-08-25T03:56:06.482Z,20.70
2022-08-25T04:01:08.652Z,20.70
2022-08-25T04:06:11.362Z,20.70
2022-08-25T04:11:15.902Z,20.70
2022-08-25T04:16:25.107Z,20.70
2022-08-25T04:21:27.112Z,20.70
2022-08-25T04:26:37.875Z,20.80
2022-08-25T04:31:41.555Z,20.80
2022-08-25T04:36:43.474Z,20.90
2022-08-25T04:41:45.336Z,21.00
2022-08-25T04:46:47.239Z,21.10
2022-08-25T04:51:49.171Z,21.20
2022-08-25T04:56:54.479Z,21.20
2022-08-25T05:02:03.002Z,21.30
2022-08-25T05:07:05.470Z,21.30
2022-08-25T05:12:07.548Z,21.20
2022-08-25T05:17:09.498Z,21.30
2022-08-25T05:22:11.485Z,21.30
2022-08-25T05:27:13.326Z,21.30
2022-08-25T05:32:15.260Z,21.40
2022-08-25T05:37:18.418Z,21.60
2022-08-25T05:42:20.309Z,21.60
2022-08-25T05:47:22.194Z,21.60
2022-08-25T05:52:24.503Z,21.60
2022-08-25T05:57:26.514Z,21.60
2022-08-25T06:02:48.521Z,21.70
2022-08-25T06:07:52.018Z,21.80
2022-08-25T06:12:54.098Z,21.90
2022-08-25T06:18:01.612Z,22.00
2022-08-25T06:23:03.823Z,22.20
2022-08-25T06:28:06.434Z,22.30
2022-08-25T06:33:08.473Z,22.40
2022-08-25T06:38:11.078Z,22.70
2022-08-25T06:43:12.918Z,22.90
2022-08-25T06:48:15.290Z,23.10
2022-08-25T06:53:17.107Z,23.20
2022-08-25T06:58:19.009Z,23.30
2022-08-25T07:08:29.402Z,23.70
2022-08-25T07:13:32.134Z,24.60
2022-08-25T07:18:35.188Z,25.50
2022-08-25T07:23:37.415Z,25.90
2022-08-25T07:28:39.376Z,25.70
2022-08-25T07:34:07.933Z,25.30
2022-08-25T07:39:11.772Z,24.90
2022-08-25T07:44:13.890Z,24.80
2022-08-25T07:49:16.663Z,25.40
2022-08-25T07:54:19.292Z,25.30
2022-08-25T07:59:24.461Z,25.20
2022-08-25T08:04:26.558Z,25.10
2022-08-25T08:09:31.257Z,25.10
2022-08-25T08:14:39.595Z,25.30
2022-08-25T08:19:48.293Z,25.10
2022-08-25T08:24:54.219Z,25.00
2022-08-25T08:29:58.310Z,24.80
2022-08-25T08:35:00.278Z,24.70
2022-08-25T08:40:03.398Z,24.90
2022-08-25T08:45:40.654Z,25.30
2022-08-25T08:51:23.087Z,25.50
2022-08-25T08:56:48.119Z,25.90
2022-08-25T09:02:02.939Z,26.40
2022-08-25T09:07:11.974Z,26.40
2022-08-25T09:12:47.467Z,26.20
2022-08-25T09:18:06.460Z,26.20
2022-08-25T09:23:22.520Z,26.50
2022-08-25T09:28:33.170Z,26.70
2022-08-25T09:33:35.943Z,26.60
2022-08-25T09:38:38.577Z,26.80
2022-08-25T09:43:45.265Z,27.30
2022-08-25T09:48:56.837Z,28.30
2022-08-25T09:54:15.386Z,29.40
2022-08-25T09:59:35.643Z,30.20
2022-08-25T10:04:40.042Z,30.70
2022-08-25T10:09:43.591Z,30.90
2022-08-25T10:14:48.061Z,31.30
2022-08-25T10:19:51.229Z,31.80
2022-08-25T10:24:53.252Z,32.20
2022-08-25T10:30:16.912Z,31.20
2022-08-25T10:35:24.590Z,31.20
2022-08-25T10:40:49.864Z,31.30
2022-08-25T10:46:24.583Z,31.80
2022-08-25T10:51:51.466Z,32.60
2022-08-25T10:57:14.030Z,32.90
2022-08-25T11:02:46.799Z,32.90
2022-08-25T11:07:51.553Z,32.80
2022-08-25T11:12:56.642Z,31.80
2022-08-25T11:18:15.011Z,31.30
2022-08-25T11:23:20.005Z,31.40
2022-08-25T11:28:59.474Z,31.80
2022-08-25T11:34:01.417Z,32.20
2022-08-25T11:39:34.403Z,32.50
2022-08-25T11:45:15.659Z,32.50
2022-08-25T11:50:37.490Z,32.50
2022-08-25T11:55:53.885Z,32.80
2022-08-25T12:00:58.455Z,33.00
2022-08-25T12:06:16.352Z,32.70
2022-08-25T12:11:43.414Z,32.60
2022-08-25T12:16:51.476Z,32.80
2022-08-25T12:21:56.446Z,33.10
2022-08-25T12:27:00.990Z,33.20
2022-08-25T12:32:46.472Z,32.60
2022-08-25T12:38:01.580Z,32.20
2022-08-25T12:43:12.535Z,32.10
2022-08-25T12:48:27.274Z,32.10
2022-08-25T12:53:38.760Z,32.00
2022-08-25T12:59:02.518Z,31.90
2022-08-25T13:04:26.147Z,31.80
2022-08-25T13:09:58.656Z,31.90
2022-08-25T13:15:01.254Z,32.10
2022-08-25T13:20:17.870Z,32.10
2022-08-25T13:25:23.244Z,31.40
2022-08-25T13:30:36.375Z,31.10
2022-08-25T13:35:38.294Z,31.40
2022-08-25T13:40:43.343Z,31.60
2022-08-25T13:45:48.167Z,31.30
2022-08-25T13:50:53.159Z,30.90
2022-08-25T13:56:00.075Z,31.00
2022-08-25T14:01:19.721Z,31.20
2022-08-25T14:06:27.769Z,31.40
2022-08-25T14:11:43.338Z,31.60
2022-08-25T14:16:54.388Z,31.80
2022-08-25T14:22:02.106Z,31.80
2022-08-25T14:27:05.178Z,31.50
2022-08-25T14:32:07.290Z,31.30
2022-08-25T14:37:17.406Z,30.90
2022-08-25T14:42:20.110Z,30.40
2022-08-25T14:47:22.068Z,29.90
2022-08-25T14:52:28.878Z,29.90
2022-08-25T14:57:31.871Z,29.80
2022-08-25T15:02:38.056Z,29.80
2022-08-25T15:07:58.652Z,29.60
2022-08-25T15:13:01.731Z,29.50
2022-08-25T15:18:05.569Z,29.60
2022-08-25T15:23:08.887Z,29.60
2022-08-25T15:28:11.022Z,29.60
2022-08-25T15:34:29.096Z,29.50
2022-08-25T15:39:31.042Z,29.50
2022-08-25T15:44:33.526Z,29.40
2022-08-25T15:49:37.703Z,29.30
2022-08-25T15:54:40.075Z,29.00
2022-08-25T15:59:42.181Z,28.90
2022-08-25T16:04:44.127Z,28.80
2022-08-25T16:09:47.119Z,28.70
2022-08-25T16:14:49.334Z,28.60
2022-08-25T16:19:54.328Z,28.40
2022-08-25T16:24:56.242Z,28.30
2022-08-25T16:29:58.241Z,28.10
2022-08-25T16:35:00.120Z,28.00
2022-08-25T16:40:02.649Z,27.80
2022-08-25T16:45:05.304Z,27.80
2022-08-25T16:50:11.434Z,27.70
2022-08-25T16:55:15.197Z,27.60
2022-08-25T17:00:21.948Z,27.50
2022-08-25T17:05:23.913Z,27.30
2022-08-25T17:10:28.573Z,27.20
2022-08-25T17:15:31.170Z,27.00
2022-08-25T17:20:33.477Z,26.80
2022-08-25T17:25:41.250Z,26.70
2022-08-25T17:30:45.721Z,26.60
2022-08-25T17:35:49.801Z,26.40
2022-08-25T17:40:57.614Z,26.20
2022-08-25T17:46:00.294Z,26.00
2022-08-25T17:51:03.190Z,25.90
2022-08-25T17:56:11.666Z,25.70
2022-08-25T18:01:30.253Z,25.50
2022-08-25T18:06:32.553Z,25.40
2022-08-25T18:11:34.596Z,25.20
2022-08-25T18:16:36.652Z,25.10
2022-08-25T18:21:39.300Z,25.00
2022-08-25T18:26:41.397Z,24.90
2022-08-25T18:31:46.566Z,24.70
2022-08-25T18:36:51.313Z,24.60
2022-08-25T18:41:54.934Z,24.50
2022-08-25T18:46:58.062Z,24.40
2022-08-25T18:51:59.951Z,24.30
2022-08-25T18:57:03.206Z,24.20
2022-08-25T19:02:06.596Z,24.10
2022-08-25T19:07:09.037Z,24.00
2022-08-25T19:12:11.882Z,23.90
2022-08-25T19:17:24.905Z,23.80
2022-08-25T19:22:41.121Z,23.70
2022-08-25T19:27:45.069Z,23.70
2022-08-25T19:32:48.150Z,23.50
2022-08-25T19:37:52.182Z,23.40
2022-08-25T19:42:54.154Z,23.30
2022-08-25T19:47:56.718Z,23.20
2022-08-25T19:52:59.900Z,23.20
2022-08-25T19:58:04.225Z,23.00
2022-08-25T20:03:07.669Z,22.90
2022-08-25T20:08:09.665Z,22.80
2022-08-25T20:13:12.656Z,22.70
2022-08-25T20:18:14.872Z,22.60
2022-08-25T20:23:35.674Z,22.60
2022-08-25T20:28:42.292Z,22.50
2022-08-25T20:33:44.530Z,22.50
2022-08-25T20:38:47.786Z,22.40
2022-08-25T20:43:50.438Z,22.30
2022-08-25T20:48:54.706Z,22.30
2022-08-25T20:53:56.958Z,22.20
2022-08-25T20:59:00.023Z,22.10
2022-08-25T21:04:02.586Z,22.10
2022-08-25T21:09:15.940Z,22.00
2022-08-25T21:14:18.637Z,22.00
2022-08-25T21:19:26.645Z,21.90
2022-08-25T21:24:31.965Z,21.90
2022-08-25T21:29:34.065Z,21.80
2022-08-25T21:34:36.100Z,21.80
2022-08-25T21:39:38.195Z,21.70
2022-08-25T21:44:40.171Z,21.60
2022-08-25T21:49:42.446Z,21.60
2022-08-25T21:54:44.788Z,21.50
2022-08-25T21:59:46.781Z,21.50
2022-08-25T22:04:51.648Z,21.40
2022-08-25T22:09:53.752Z,21.30
2022-08-25T22:14:55.668Z,21.30
2022-08-25T22:19:59.271Z,21.30
2022-08-25T22:25:01.329Z,21.20
2022-08-25T22:30:04.736Z,21.10
2022-08-25T22:35:08.644Z,21.10
2022-08-25T22:40:12.390Z,21.10
2022-08-25T22:45:14.488Z,21.00
2022-08-25T22:50:17.279Z,20.90
2022-08-25T22:55:22.103Z,20.90
2022-08-25T23:00:25.138Z,20.90
2022-08-25T23:05:27.517Z,20.90
2022-08-25T23:10:30.198Z,20.80
2022-08-25T23:15:32.922Z,20.70
2022-08-25T23:21:03.550Z,20.70
2022-08-25T23:26:07.484Z,20.60
2022-08-25T23:31:11.531Z,20.60
2022-08-25T23:36:15.551Z,20.50
2022-08-25T23:41:21.384Z,20.50
2022-08-25T23:46:29.595Z,20.50
2022-08-25T23:51:34.025Z,20.40
2022-08-25T23:56:44.768Z,20.40
